createdAt,value
2022-12-06T00:01:47.027Z,101391.28
2022-12-06T00:04:51.028Z,101399.13
2022-12-06T00:07:53.668Z,101397.38
2022-12-06T00:10:56.454Z,101394.75
2022-12-06T00:14:00.825Z,101399.09
2022-12-06T00:17:03.447Z,101391.25
2022-12-06T00:20:08.988Z,101386.00
2022-12-06T00:23:11.610Z,101389.53
2022-12-06T00:26:14.499Z,101390.38
2022-12-06T00:29:20.205Z,101378.13
2022-12-06T00:32:22.848Z,101384.28
2022-12-06T00:35:27.054Z,101383.41
2022-12-06T00:38:30.790Z,101378.16
2022-12-06T00:41:33.617Z,101378.16
2022-12-06T00:44:36.223Z,101386.91
2022-12-06T00:47:38.828Z,101383.41
2022-12-06T00:50:42.813Z,101378.13
2022-12-06T00:53:46.002Z,101378.13
2022-12-06T00:56:48.600Z,101382.50
2022-12-06T00:59:51.209Z,101377.28
2022-12-06T01:02:54.005Z,101374.63
2022-12-06T01:05:57.985Z,101378.16
2022-12-06T01:09:02.212Z,101376.38
2022-12-06T01:12:04.991Z,101370.25
2022-12-06T01:15:08.714Z,101365.91
2022-12-06T01:18:11.382Z,101368.53
2022-12-06T01:21:17.716Z,101367.63
2022-12-06T01:24:20.357Z,101365.88
2022-12-06T01:27:22.988Z,101370.25
2022-12-06T01:30:25.699Z,101369.41
2022-12-06T01:33:28.381Z,101364.13
2022-12-06T01:36:32.644Z,101364.09
2022-12-06T01:39:35.301Z,101365.00
2022-12-06T01:42:37.921Z,101354.50
2022-12-06T01:45:40.644Z,101353.63
2022-12-06T01:48:43.339Z,101355.38
2022-12-06T01:51:52.369Z,101356.22
2022-12-06T01:54:55.325Z,101347.50
2022-12-06T01:58:00.930Z,101351.88
2022-12-06T02:01:03.626Z,101358.00
2022-12-06T02:04:07.192Z,101353.63
2022-12-06T02:07:12.951Z,101354.47
2022-12-06T02:10:15.593Z,101347.50
2022-12-06T02:13:18.410Z,101347.47
2022-12-06T02:16:33.186Z,101346.63
2022-12-06T02:20:01.458Z,101342.25
2022-12-06T02:23:48.131Z,101335.22
2022-12-06T02:26:52.905Z,101329.09
2022-12-06T02:30:10.874Z,101329.06
2022-12-06T02:33:23.589Z,101322.09
2022-12-06T02:36:32.096Z,101314.22
2022-12-06T02:39:39.261Z,101319.47
2022-12-06T02:42:45.657Z,101318.56
2022-12-06T02:45:54.247Z,101313.34
2022-12-06T02:49:01.166Z,101312.44
2022-12-06T02:52:04.072Z,101312.44
2022-12-06T02:55:09.692Z,101309.81
2022-12-06T02:58:12.667Z,101309.81
2022-12-06T03:01:17.330Z,101308.09
2022-12-06T03:04:48.894Z,101313.31
2022-12-06T03:07:53.086Z,101311.59
2022-12-06T03:11:01.453Z,101312.47
2022-12-06T03:14:11.010Z,101308.97
2022-12-06T03:17:23.884Z,101311.56
2022-12-06T03:20:32.243Z,101304.56
2022-12-06T03:23:40.074Z,101301.09
2022-12-06T03:26:44.916Z,101306.31
2022-12-06T03:29:52.337Z,101298.44
2022-12-06T03:32:54.996Z,101299.28
2022-12-06T03:36:00.139Z,101302.78
2022-12-06T03:39:05.629Z,101303.63
2022-12-06T03:42:09.566Z,101299.28
2022-12-06T03:45:13.302Z,101303.66
2022-12-06T03:48:20.887Z,101301.03
2022-12-06T03:51:28.258Z,101305.38
2022-12-06T03:54:31.016Z,101308.88
2022-12-06T03:57:33.764Z,101282.63
2022-12-06T04:00:36.392Z,101288.75
2022-12-06T04:03:39.264Z,101290.50
2022-12-06T04:06:43.304Z,101289.56
2022-12-06T04:09:56.405Z,101279.97
2022-12-06T04:13:02.053Z,101281.69
2022-12-06T04:16:24.962Z,101279.91
2022-12-06T04:19:26.649Z,101276.41
2022-12-06T04:22:48.004Z,101271.97
2022-12-06T04:25:50.606Z,101274.59
2022-12-06T04:29:12.352Z,101271.97
2022-12-06T04:32:32.640Z,101265.81
2022-12-06T04:35:52.830Z,101264.91
2022-12-06T04:38:56.943Z,101264.88
2022-12-06T04:42:17.606Z,101258.75
2022-12-06T04:45:20.223Z,101262.22
2022-12-06T04:48:22.943Z,101260.47
2022-12-06T04:51:25.799Z,101263.00
2022-12-06T04:54:30.223Z,101258.63
2022-12-06T04:57:32.867Z,101256.88
2022-12-06T05:00:35.507Z,101255.13
2022-12-06T05:03:43.814Z,101259.44
2022-12-06T05:06:47.042Z,101249.75
2022-12-06T05:09:50.995Z,101254.97
2022-12-06T05:12:53.670Z,101254.97
2022-12-06T05:15:58.450Z,101242.72
2022-12-06T05:19:01.131Z,101249.69
2022-12-06T05:22:03.982Z,101260.16
2022-12-06T05:25:09.260Z,101255.78
2022-12-06T05:28:11.887Z,101252.25
2022-12-06T05:31:14.913Z,101253.97
2022-12-06T05:34:17.578Z,101261.84
2022-12-06T05:37:20.233Z,101254.81
2022-12-06T05:40:24.245Z,101256.56
2022-12-06T05:43:26.969Z,101255.63
2022-12-06T05:46:29.686Z,101260.88
2022-12-06T05:49:32.329Z,101258.25
2022-12-06T05:52:35.089Z,101249.44
2022-12-06T05:55:39.097Z,101252.88
2022-12-06T05:58:42.073Z,101261.66
2022-12-06T06:01:44.797Z,101258.09
2022-12-06T06:04:47.487Z,101264.97
2022-12-06T06:07:50.247Z,101251.81
2022-12-06T06:10:54.395Z,101255.28
2022-12-06T06:13:57.020Z,101254.44
2022-12-06T06:16:59.655Z,101251.78
2022-12-06T06:20:05.510Z,101250.84
2022-12-06T06:23:08.340Z,101254.28
2022-12-06T06:26:13.307Z,101238.53
2022-12-06T06:29:16.108Z,101240.13
2022-12-06T06:32:18.724Z,101253.25
2022-12-06T06:35:21.357Z,101243.63
2022-12-06T06:38:24.048Z,101251.44
2022-12-06T06:41:28.037Z,101248.75
2022-12-06T06:44:30.660Z,101253.25
2022-12-06T06:47:33.281Z,101257.59
2022-12-06T06:50:35.953Z,101257.47
2022-12-06T06:53:39.181Z,101264.53
2022-12-06T06:56:43.638Z,101260.94
2022-12-06T06:59:46.482Z,101260.81
2022-12-06T07:02:49.156Z,101259.97
2022-12-06T07:05:56.157Z,101268.66
2022-12-06T07:08:58.934Z,101270.63
2022-12-06T07:12:03.155Z,101266.09
2022-12-06T07:15:06.405Z,101268.78
2022-12-06T07:18:09.063Z,101264.44
2022-12-06T07:21:14.845Z,101266.09
2022-12-06T07:24:17.817Z,101271.50
2022-12-06T07:27:21.805Z,101273.31
2022-12-06T07:30:27.589Z,101276.03
2022-12-06T07:33:30.389Z,101268.00
2022-12-06T07:36:33.517Z,101271.41
2022-12-06T07:39:36.125Z,101270.72
2022-12-06T07:42:57.486Z,101269.69
2022-12-06T07:46:00.217Z,101271.44
2022-12-06T07:49:03.091Z,101268.88
2022-12-06T07:52:05.848Z,101271.34
2022-12-06T07:55:10.470Z,101267.81
2022-12-06T07:58:14.465Z,101275.69
2022-12-06T08:01:17.172Z,101279.31
2022-12-06T08:04:19.902Z,101282.66
2022-12-06T08:07:23.166Z,101272.66
2022-12-06T08:10:25.809Z,101278.69
2022-12-06T08:13:30.213Z,101277.56
2022-12-06T08:16:32.932Z,101285.53
2022-12-06T08:19:35.622Z,101281.88
2022-12-06T08:22:38.457Z,101281.94
2022-12-06T08:25:41.122Z,101288.78
2022-12-06T08:28:45.117Z,101291.38
2022-12-06T08:31:48.272Z,101292.25
2022-12-06T08:34:50.951Z,101294.81
2022-12-06T08:37:53.584Z,101290.56
2022-12-06T08:40:56.163Z,101296.56
2022-12-06T08:44:01.783Z,101294.97
2022-12-06T08:47:04.673Z,101288.88
2022-12-06T08:50:08.597Z,101293.03
2022-12-06T08:53:11.332Z,101285.13
2022-12-06T08:56:14.064Z,101291.16
2022-12-06T08:59:18.556Z,101292.22
2022-12-06T09:02:21.264Z,101295.78
2022-12-06T09:05:23.937Z,101299.22
2022-12-06T09:08:26.625Z,101305.41
2022-12-06T09:11:29.320Z,101294.97
2022-12-06T09:14:33.267Z,101309.88
2022-12-06T09:17:36.962Z,101308.03
2022-12-06T09:20:40.906Z,101312.41
2022-12-06T09:23:44.267Z,101310.91
2022-12-06T09:26:47.565Z,101301.19
2022-12-06T09:29:51.563Z,101304.53
2022-12-06T09:32:54.191Z,101302.72
2022-12-06T09:35:57.959Z,101312.03
2022-12-06T09:39:05.335Z,101316.03
2022-12-06T09:42:32.398Z,101306.22
2022-12-06T09:45:54.495Z,101303.72
2022-12-06T09:49:18.614Z,101303.75
2022-12-06T09:52:33.422Z,101308.84
2022-12-06T09:55:48.210Z,101302.78
2022-12-06T09:59:04.126Z,101310.84
2022-12-06T10:02:24.830Z,101307.06
2022-12-06T10:05:51.775Z,101306.22
2022-12-06T10:09:14.432Z,101300.56
2022-12-06T10:12:30.247Z,101308.28
2022-12-06T10:15:45.167Z,101298.38
2022-12-06T10:19:01.990Z,101297.59
2022-12-06T10:22:14.120Z,101292.19
2022-12-06T10:25:23.719Z,101300.94
2022-12-06T10:28:43.893Z,101300.81
2022-12-06T10:31:56.448Z,101292.25
2022-12-06T10:35:13.601Z,101292.19
2022-12-06T10:38:28.175Z,101285.31
2022-12-06T10:41:36.157Z,101284.13
2022-12-06T10:44:45.522Z,101286.00
2022-12-06T10:47:47.255Z,101287.69
2022-12-06T10:50:59.408Z,101298.25
2022-12-06T10:54:11.731Z,101295.69
2022-12-06T10:57:20.989Z,101278.16
2022-12-06T11:00:25.476Z,101278.94
2022-12-06T11:03:33.201Z,101288.53
2022-12-06T11:06:42.461Z,101292.19
2022-12-06T11:09:48.490Z,101282.69
2022-12-06T11:12:57.849Z,101283.03
2022-12-06T11:16:06.526Z,101274.88
2022-12-06T11:19:21.434Z,101282.47
2022-12-06T11:22:34.862Z,101282.41
2022-12-06T11:25:54.165Z,101280.63
2022-12-06T11:29:05.758Z,101278.16
2022-12-06T11:32:09.149Z,101277.19
2022-12-06T11:35:13.771Z,101273.25
2022-12-06T11:38:18.308Z,101265.06
2022-12-06T11:41:24.353Z,101251.84
2022-12-06T11:44:29.474Z,101263.53
2022-12-06T11:47:32.238Z,101255.44
2022-12-06T11:50:37.472Z,101249.94
2022-12-06T11:53:46.395Z,101252.50
2022-12-06T11:56:49.197Z,101248.13
2022-12-06T12:00:16.573Z,101243.75
2022-12-06T12:03:29.454Z,101242.91
2022-12-06T12:06:32.202Z,101235.81
2022-12-06T12:09:37.996Z,101239.41
2022-12-06T12:13:03.721Z,101239.38
2022-12-06T12:16:14.907Z,101226.31
2022-12-06T12:19:31.960Z,101228.25
2022-12-06T12:22:37.164Z,101227.16
2022-12-06T12:25:42.320Z,101221.84
2022-12-06T12:28:47.229Z,101222.97
2022-12-06T12:31:56.080Z,101219.25
2022-12-06T12:34:59.308Z,101214.94
2022-12-06T12:38:05.736Z,101221.03
2022-12-06T12:41:24.654Z,101224.53
2022-12-06T12:44:37.624Z,101214.06
2022-12-06T12:47:56.080Z,101216.75
2022-12-06T12:51:01.106Z,101207.56
2022-12-06T12:54:05.733Z,101217.66
2022-12-06T12:57:14.461Z,101215.09
2022-12-06T13:00:19.312Z,101219.31
2022-12-06T13:06:51.992Z,101212.41
2022-12-06T13:10:02.171Z,101213.53
2022-12-06T13:13:13.845Z,101205.63
2022-12-06T13:16:22.205Z,101197.66
2022-12-06T13:19:31.990Z,101206.25
2022-12-06T13:22:38.907Z,101203.59
2022-12-06T13:25:46.305Z,101204.56
2022-12-06T13:28:54.271Z,101212.00
2022-12-06T13:32:00.908Z,101206.88
2022-12-06T13:35:07.407Z,101198.59
2022-12-06T13:38:26.998Z,101201.41
2022-12-06T13:42:11.793Z,101212.72
2022-12-06T13:45:42.202Z,101213.81
2022-12-06T13:48:52.597Z,101208.44
2022-12-06T13:51:55.236Z,101207.44
2022-12-06T13:54:57.929Z,101201.44
2022-12-06T13:58:41.526Z,101199.53
2022-12-06T14:01:47.141Z,101199.56
2022-12-06T14:04:49.864Z,101202.38
2022-12-06T14:07:58.435Z,101200.44
2022-12-06T14:11:23.729Z,101206.63
2022-12-06T14:14:26.654Z,101204.81
2022-12-06T14:18:01.565Z,101201.31
2022-12-06T14:21:01.462Z,101188.25
2022-12-06T14:24:04.458Z,101190.19
2022-12-06T14:27:12.738Z,101201.44
2022-12-06T14:30:25.179Z,101191.88
2022-12-06T14:33:30.009Z,101201.09
2022-12-06T14:36:35.297Z,101193.94
2022-12-06T14:39:38.007Z,101191.28
2022-12-06T14:42:57.940Z,101192.25
2022-12-06T14:46:04.262Z,101200.19
2022-12-06T14:49:30.797Z,101197.41
2022-12-06T14:52:33.438Z,101194.53
2022-12-06T14:55:37.883Z,101198.31
2022-12-06T14:58:42.763Z,101199.00
2022-12-06T15:01:49.195Z,101191.91
2022-12-06T15:04:53.383Z,101199.84
2022-12-06T15:07:56.161Z,101185.75
2022-12-06T15:11:01.037Z,101176.00
2022-12-06T15:14:15.264Z,101181.28
2022-12-06T15:17:19.966Z,101177.81
2022-12-06T15:20:24.385Z,101182.97
2022-12-06T15:23:35.834Z,101187.28
2022-12-06T15:26:38.479Z,101182.13
2022-12-06T15:29:41.100Z,101182.34
2022-12-06T15:32:43.782Z,101191.75
2022-12-06T15:35:47.853Z,101188.38
2022-12-06T15:38:50.685Z,101183.06
2022-12-06T15:41:54.428Z,101191.69
2022-12-06T15:44:57.006Z,101192.53
2022-12-06T15:47:59.610Z,101189.91
2022-12-06T15:51:10.290Z,101185.47
2022-12-06T15:54:17.771Z,101187.22
2022-12-06T15:57:20.423Z,101187.31
2022-12-06T16:00:23.481Z,101182.09
2022-12-06T16:03:26.390Z,101179.47
2022-12-06T16:06:31.023Z,101183.09
2022-12-06T16:09:33.644Z,101185.72
2022-12-06T16:12:56.990Z,101184.09
2022-12-06T16:15:59.676Z,101180.75
2022-12-06T16:19:02.928Z,101186.94
2022-12-06T16:22:08.770Z,101188.81
2022-12-06T16:25:10.397Z,101184.47
2022-12-06T16:28:14.266Z,101190.78
2022-12-06T16:31:17.010Z,101187.34
2022-12-06T16:34:19.723Z,101191.69
2022-12-06T16:37:23.704Z,101183.75
2022-12-06T16:40:28.853Z,101181.63
2022-12-06T16:43:31.495Z,101187.56
2022-12-06T16:46:35.998Z,101182.38
2022-12-06T16:49:49.295Z,101188.63
2022-12-06T16:52:54.186Z,101183.16
2022-12-06T16:55:56.799Z,101188.53
2022-12-06T16:58:59.880Z,101177.97
2022-12-06T17:02:02.544Z,101181.44
2022-12-06T17:05:07.240Z,101179.59
2022-12-06T17:08:11.409Z,101187.41
2022-12-06T17:11:35.867Z,101190.22
2022-12-06T17:14:38.997Z,101185.78
2022-12-06T17:17:42.134Z,101183.16
2022-12-06T17:20:44.754Z,101191.84
2022-12-06T17:23:49.317Z,101183.22
2022-12-06T17:26:53.911Z,101186.69
2022-12-06T17:29:56.589Z,101188.41
2022-12-06T17:32:59.189Z,101186.66
2022-12-06T17:36:06.136Z,101182.25
2022-12-06T17:39:11.311Z,101184.03
2022-12-06T17:42:31.805Z,101186.59
2022-12-06T17:45:34.546Z,101182.31
2022-12-06T17:48:43.018Z,101179.63
2022-12-06T17:51:47.428Z,101186.75
2022-12-06T17:54:51.456Z,101183.38
2022-12-06T17:57:54.045Z,101186.00
2022-12-06T18:00:59.583Z,101185.03
2022-12-06T18:04:03.672Z,101182.41
2022-12-06T18:07:06.475Z,101179.66
2022-12-06T18:10:11.669Z,101180.63
2022-12-06T18:13:14.284Z,101177.03
2022-12-06T18:16:18.708Z,101180.47
2022-12-06T18:19:22.289Z,101172.53
2022-12-06T18:22:25.072Z,101181.44
2022-12-06T18:25:29.048Z,101171.78
2022-12-06T18:28:32.191Z,101162.13
2022-12-06T18:31:36.500Z,101160.34
2022-12-06T18:34:39.244Z,101154.31
2022-12-06T18:37:42.032Z,101159.59
2022-12-06T18:40:46.037Z,101150.16
2022-12-06T18:43:48.668Z,101153.78
2022-12-06T18:46:51.358Z,101147.66
2022-12-06T18:49:53.975Z,101145.94
2022-12-06T18:52:56.615Z,101147.72
2022-12-06T18:56:00.654Z,101145.13
2022-12-06T18:59:05.378Z,101141.69
2022-12-06T19:02:08.041Z,101140.88
2022-12-06T19:05:10.723Z,101147.06
2022-12-06T19:08:13.393Z,101149.59
2022-12-06T19:11:20.891Z,101136.50
2022-12-06T19:14:24.006Z,101132.97
2022-12-06T19:17:26.648Z,101129.50
2022-12-06T19:20:29.306Z,101131.28
2022-12-06T19:23:31.979Z,101133.91
2022-12-06T19:26:35.925Z,101124.31
2022-12-06T19:29:38.566Z,101129.53
2022-12-06T19:32:41.222Z,101130.41
2022-12-06T19:35:43.840Z,101122.66
2022-12-06T19:38:46.924Z,101122.66
2022-12-06T19:42:08.317Z,101120.94
2022-12-06T19:45:11.283Z,101124.44
2022-12-06T19:48:14.569Z,101119.97
2022-12-06T19:51:17.901Z,101121.78
2022-12-06T19:54:22.760Z,101108.66
2022-12-06T19:57:26.749Z,101107.69
2022-12-06T20:00:29.526Z,101108.59
2022-12-06T20:03:32.182Z,101096.19
2022-12-06T20:06:36.519Z,101097.97
2022-12-06T20:09:39.493Z,101095.38
2022-12-06T20:12:43.448Z,101093.53
2022-12-06T20:15:46.078Z,101088.25
2022-12-06T20:18:48.705Z,101083.84
2022-12-06T20:21:51.583Z,101082.97
2022-12-06T20:24:54.223Z,101076.88
2022-12-06T20:28:02.193Z,101077.66
2022-12-06T20:31:11.021Z,101068.06
2022-12-06T20:34:15.539Z,101054.13
2022-12-06T20:37:18.673Z,101057.53
2022-12-06T20:40:23.557Z,101052.28
2022-12-06T20:43:30.863Z,101034.66
2022-12-06T20:46:33.500Z,101031.28
2022-12-06T20:49:36.492Z,101023.34
2022-12-06T20:52:39.156Z,101015.47
2022-12-06T20:55:41.760Z,101009.38
2022-12-06T20:58:46.839Z,101016.28
2022-12-06T21:01:49.841Z,101017.13
2022-12-06T21:04:52.487Z,101017.09
2022-12-06T21:07:55.177Z,101016.16
2022-12-06T21:11:24.700Z,101011.25
2022-12-06T21:14:23.148Z,101019.19
2022-12-06T21:17:25.777Z,101010.09
2022-12-06T21:20:28.394Z,101003.13
2022-12-06T21:23:32.009Z,100998.19
2022-12-06T21:26:35.865Z,100989.34
2022-12-06T21:29:42.492Z,100994.66
2022-12-06T21:32:45.100Z,100994.91
2022-12-06T21:35:48.752Z,100988.97
2022-12-06T21:38:51.617Z,100976.50
2022-12-06T21:41:54.704Z,100985.31
2022-12-06T21:44:58.683Z,100983.72
2022-12-06T21:48:01.377Z,100975.75
2022-12-06T21:51:07.044Z,100973.88
2022-12-06T21:54:09.704Z,100969.66
2022-12-06T21:57:12.329Z,100952.34
2022-12-06T22:00:17.744Z,100952.94
2022-12-06T22:03:23.149Z,100958.06
2022-12-06T22:06:26.529Z,100958.13
2022-12-06T22:09:29.161Z,100961.94
2022-12-06T22:12:31.922Z,100955.97
2022-12-06T22:15:36.011Z,100957.19
2022-12-06T22:18:44.909Z,100951.38
2022-12-06T22:21:48.681Z,100954.88
2022-12-06T22:24:51.312Z,100952.84
2022-12-06T22:27:54.721Z,100943.47
2022-12-06T22:31:10.654Z,100938.97
2022-12-06T22:34:13.533Z,100938.22
2022-12-06T22:37:16.305Z,100942.69
2022-12-06T22:40:19.113Z,100941.63
2022-12-06T22:43:21.745Z,100935.53
2022-12-06T22:46:27.212Z,100934.63
2022-12-06T22:49:29.821Z,100919.91
2022-12-06T22:52:32.459Z,100912.47
2022-12-06T22:55:35.195Z,100905.25
2022-12-06T22:58:38.398Z,100904.66
2022-12-06T23:01:42.420Z,100896.69
2022-12-06T23:04:45.140Z,100889.88
2022-12-06T23:07:48.269Z,100886.22
2022-12-06T23:10:50.948Z,100883.59
2022-12-06T23:13:54.732Z,100875.41
2022-12-06T23:16:59.437Z,100879.06
2022-12-06T23:20:02.278Z,100876.50
2022-12-06T23:23:05.074Z,100869.50
2022-12-06T23:26:09.846Z,100867.09
2022-12-06T23:29:12.591Z,100867.31
2022-12-06T23:32:16.696Z,100870.56
2022-12-06T23:35:19.278Z,100863.25
2022-12-06T23:38:21.900Z,100850.34
2022-12-06T23:41:26.850Z,100844.47
2022-12-06T23:44:29.489Z,100845.66
2022-12-06T23:47:33.507Z,100847.59
2022-12-06T23:50:36.140Z,100849.28
2022-12-06T23:53:39.650Z,100840.47
2022-12-06T23:56:43.685Z,100840.84
2022-12-06T23:59:46.311Z,100844.91
